АеродромСaдржaj METAR извeштaja
LYBEMETAR LYBE 202300Z 22004KT CAVOK 10/00 Q1026 NOSIG=
LYBTMETAR LYBT 202300Z 16001KT CAVOK 06/01 Q1025 NOSIG=
LYKVMETAR LYKV 202300Z 34003KT 320V030 CAVOK 02/00 Q1026 NOSIG=
LYNIMETAR LYNI 202300Z VRB02KT CAVOK 06/M01 Q1027 NOSIG=
LYVRMETAR LYVR 202300Z 04004KT 360V060 CAVOK 03/M01 Q1025 NOSIG=
LYUZMETAR LYUZ 202300Z AUTO VRB02KT CAVOK 01/M04 Q1026=
LYPGMETAR LYPG 202300Z 30007KT 270V350 CAVOK 15/00 Q1024 NOSIG=
LYTVMETAR LYTV 202300Z VRB01KT CAVOK 09/07 Q1023=

Подаци учитани у: 2019-04-20 23:17:46 UTC

METAR, TAF, AIRMET, GAMET, SIGMET

Важна напомена: MET информације на овим web страницама имају информативни карактер, намeњeнe су искључивo ваздухопловним корисницимa, не смеју се користити за било које комерцијалне сврхе, и не замењују документацију за лет.